sensor_id;sensor_type;location;lat;lon;timestamp;P1;durP1;ratioP1;P2;durP2;ratioP2
24826;SDS011;12910;57.690;11.974;2023-03-23T00:01:49;28.00;;;4.77;;
24826;SDS011;12910;57.690;11.974;2023-03-23T00:04:18;20.40;;;4.30;;
24826;SDS011;12910;57.690;11.974;2023-03-23T00:06:43;36.97;;;5.53;;
24826;SDS011;12910;57.690;11.974;2023-03-23T00:09:10;15.60;;;5.00;;
24826;SDS011;12910;57.690;11.974;2023-03-23T00:11:37;19.17;;;4.07;;
24826;SDS011;12910;57.690;11.974;2023-03-23T00:14:04;34.20;;;4.70;;
24826;SDS011;12910;57.690;11.974;2023-03-23T00:16:30;24.07;;;4.40;;
24826;SDS011;12910;57.690;11.974;2023-03-23T00:19:01;18.00;;;4.47;;
24826;SDS011;12910;57.690;11.974;2023-03-23T00:21:31;21.07;;;4.83;;
24826;SDS011;12910;57.690;11.974;2023-03-23T00:24:17;23.27;;;4.20;;
24826;SDS011;12910;57.690;11.974;2023-03-23T00:26:44;20.67;;;3.87;;
24826;SDS011;12910;57.690;11.974;2023-03-23T00:29:18;34.30;;;5.37;;
24826;SDS011;12910;57.690;11.974;2023-03-23T00:31:46;25.70;;;3.43;;
24826;SDS011;12910;57.690;11.974;2023-03-23T00:34:13;28.83;;;5.07;;
24826;SDS011;12910;57.690;11.974;2023-03-23T00:36:44;38.07;;;4.17;;
24826;SDS011;12910;57.690;11.974;2023-03-23T00:39:13;32.80;;;4.83;;
24826;SDS011;12910;57.690;11.974;2023-03-23T00:41:41;35.20;;;4.97;;
24826;SDS011;12910;57.690;11.974;2023-03-23T00:44:07;16.53;;;4.43;;
24826;SDS011;12910;57.690;11.974;2023-03-23T00:46:33;26.90;;;5.03;;
24826;SDS011;12910;57.690;11.974;2023-03-23T00:48:59;18.20;;;5.30;;
24826;SDS011;12910;57.690;11.974;2023-03-23T00:51:24;35.20;;;5.43;;
24826;SDS011;12910;57.690;11.974;2023-03-23T00:53:50;30.43;;;4.83;;
24826;SDS011;12910;57.690;11.974;2023-03-23T00:56:16;19.77;;;4.50;;
24826;SDS011;12910;57.690;11.974;2023-03-23T00:58:41;31.87;;;5.63;;
24826;SDS011;12910;57.690;11.974;2023-03-23T01:01:07;33.30;;;4.67;;
24826;SDS011;12910;57.690;11.974;2023-03-23T01:03:33;31.70;;;4.87;;
24826;SDS011;12910;57.690;11.974;2023-03-23T01:06:09;49.33;;;5.17;;
24826;SDS011;12910;57.690;11.974;2023-03-23T01:08:39;39.03;;;5.20;;
24826;SDS011;12910;57.690;11.974;2023-03-23T01:11:10;45.07;;;5.40;;
24826;SDS011;12910;57.690;11.974;2023-03-23T01:13:40;30.10;;;6.03;;
24826;SDS011;12910;57.690;11.974;2023-03-23T01:16:09;33.10;;;5.30;;
24826;SDS011;12910;57.690;11.974;2023-03-23T01:18:36;29.80;;;4.43;;
24826;SDS011;12910;57.690;11.974;2023-03-23T01:21:03;30.07;;;5.00;;
24826;SDS011;12910;57.690;11.974;2023-03-23T01:23:33;41.70;;;5.60;;
24826;SDS011;12910;57.690;11.974;2023-03-23T01:26:09;37.90;;;4.47;;
24826;SDS011;12910;57.690;11.974;2023-03-23T01:28:37;19.20;;;3.77;;
24826;SDS011;12910;57.690;11.974;2023-03-23T01:31:03;31.87;;;4.20;;
24826;SDS011;12910;57.690;11.974;2023-03-23T01:33:31;34.60;;;4.57;;
24826;SDS011;12910;57.690;11.974;2023-03-23T01:35:57;30.90;;;4.67;;
24826;SDS011;12910;57.690;11.974;2023-03-23T01:38:26;36.37;;;4.97;;
24826;SDS011;12910;57.690;11.974;2023-03-23T01:40:51;39.03;;;5.30;;
24826;SDS011;12910;57.690;11.974;2023-03-23T01:43:17;34.93;;;5.27;;
24826;SDS011;12910;57.690;11.974;2023-03-23T01:45:42;34.63;;;3.93;;
24826;SDS011;12910;57.690;11.974;2023-03-23T01:48:13;29.17;;;4.63;;
24826;SDS011;12910;57.690;11.974;2023-03-23T01:53:20;26.60;;;5.37;;
24826;SDS011;12910;57.690;11.974;2023-03-23T01:55:47;22.87;;;4.03;;
24826;SDS011;12910;57.690;11.974;2023-03-23T01:58:17;22.77;;;3.90;;
24826;SDS011;12910;57.690;11.974;2023-03-23T02:00:46;40.80;;;4.80;;
24826;SDS011;12910;57.690;11.974;2023-03-23T02:03:12;26.17;;;4.63;;
24826;SDS011;12910;57.690;11.974;2023-03-23T02:05:41;37.20;;;4.30;;
24826;SDS011;12910;57.690;11.974;2023-03-23T02:08:07;23.20;;;4.07;;
24826;SDS011;12910;57.690;11.974;2023-03-23T02:10:34;22.97;;;3.93;;
24826;SDS011;12910;57.690;11.974;2023-03-23T02:13:02;23.30;;;4.40;;
24826;SDS011;12910;57.690;11.974;2023-03-23T02:15:36;25.50;;;5.30;;
24826;SDS011;12910;57.690;11.974;2023-03-23T02:29:17;21.60;;;4.10;;
24826;SDS011;12910;57.690;11.974;2023-03-23T02:32:04;27.83;;;3.90;;
24826;SDS011;12910;57.690;11.974;2023-03-23T02:34:47;24.63;;;3.97;;
24826;SDS011;12910;57.690;11.974;2023-03-23T02:37:21;24.73;;;5.10;;
24826;SDS011;12910;57.690;11.974;2023-03-23T02:39:53;28.50;;;5.10;;
24826;SDS011;12910;57.690;11.974;2023-03-23T02:42:48;24.33;;;4.80;;
24826;SDS011;12910;57.690;11.974;2023-03-23T02:45:16;26.20;;;3.77;;
24826;SDS011;12910;57.690;11.974;2023-03-23T02:47:45;35.53;;;5.60;;
24826;SDS011;12910;57.690;11.974;2023-03-23T02:50:13;33.73;;;4.80;;
24826;SDS011;12910;57.690;11.974;2023-03-23T02:52:40;24.77;;;4.77;;
24826;SDS011;12910;57.690;11.974;2023-03-23T02:55:08;22.90;;;3.87;;
24826;SDS011;12910;57.690;11.974;2023-03-23T02:57:36;24.07;;;5.07;;
24826;SDS011;12910;57.690;11.974;2023-03-23T03:00:03;13.40;;;3.80;;
24826;SDS011;12910;57.690;11.974;2023-03-23T03:02:35;25.03;;;3.90;;
24826;SDS011;12910;57.690;11.974;2023-03-23T03:10:25;17.77;;;3.93;;
24826;SDS011;12910;57.690;11.974;2023-03-23T03:15:54;12.43;;;3.70;;
24826;SDS011;12910;57.690;11.974;2023-03-23T03:18:26;20.50;;;4.70;;
24826;SDS011;12910;57.690;11.974;2023-03-23T03:20:56;13.03;;;5.03;;
24826;SDS011;12910;57.690;11.974;2023-03-23T03:23:26;27.97;;;4.40;;
24826;SDS011;12910;57.690;11.974;2023-03-23T03:25:52;22.07;;;4.63;;
24826;SDS011;12910;57.690;11.974;2023-03-23T03:28:22;21.33;;;5.27;;
24826;SDS011;12910;57.690;11.974;2023-03-23T03:30:55;13.73;;;3.63;;
24826;SDS011;12910;57.690;11.974;2023-03-23T03:33:25;19.23;;;4.17;;
24826;SDS011;12910;57.690;11.974;2023-03-23T03:35:55;21.80;;;4.37;;
24826;SDS011;12910;57.690;11.974;2023-03-23T03:38:22;18.73;;;3.73;;
24826;SDS011;12910;57.690;11.974;2023-03-23T03:40:47;23.47;;;4.40;;
24826;SDS011;12910;57.690;11.974;2023-03-23T03:43:13;22.50;;;4.70;;
24826;SDS011;12910;57.690;11.974;2023-03-23T03:45:38;10.83;;;4.13;;
24826;SDS011;12910;57.690;11.974;2023-03-23T03:48:04;30.30;;;4.57;;
24826;SDS011;12910;57.690;11.974;2023-03-23T03:50:29;25.00;;;3.53;;
24826;SDS011;12910;57.690;11.974;2023-03-23T03:52:55;12.20;;;3.87;;
24826;SDS011;12910;57.690;11.974;2023-03-23T03:55:22;13.53;;;4.07;;
24826;SDS011;12910;57.690;11.974;2023-03-23T03:57:47;18.27;;;4.00;;
24826;SDS011;12910;57.690;11.974;2023-03-23T04:00:13;24.40;;;3.63;;
24826;SDS011;12910;57.690;11.974;2023-03-23T04:02:40;15.87;;;3.50;;
24826;SDS011;12910;57.690;11.974;2023-03-23T04:05:06;12.37;;;3.60;;
24826;SDS011;12910;57.690;11.974;2023-03-23T04:07:33;9.17;;;3.50;;
24826;SDS011;12910;57.690;11.974;2023-03-23T04:10:02;17.13;;;4.53;;
24826;SDS011;12910;57.690;11.974;2023-03-23T04:12:29;14.83;;;4.80;;
24826;SDS011;12910;57.690;11.974;2023-03-23T04:14:54;15.13;;;4.37;;
24826;SDS011;12910;57.690;11.974;2023-03-23T04:17:20;12.67;;;3.97;;
24826;SDS011;12910;57.690;11.974;2023-03-23T04:19:45;18.07;;;4.40;;
24826;SDS011;12910;57.690;11.974;2023-03-23T04:22:12;10.73;;;4.47;;
24826;SDS011;12910;57.690;11.974;2023-03-23T04:24:37;8.70;;;3.67;;
24826;SDS011;12910;57.690;11.974;2023-03-23T04:27:03;15.07;;;4.20;;
24826;SDS011;12910;57.690;11.974;2023-03-23T04:29:28;12.07;;;4.40;;
24826;SDS011;12910;57.690;11.974;2023-03-23T04:31:55;11.33;;;3.67;;
24826;SDS011;12910;57.690;11.974;2023-03-23T04:34:20;10.83;;;4.63;;
24826;SDS011;12910;57.690;11.974;2023-03-23T04:36:46;20.00;;;4.63;;
24826;SDS011;12910;57.690;11.974;2023-03-23T04:39:12;20.40;;;4.10;;
24826;SDS011;12910;57.690;11.974;2023-03-23T04:41:38;27.00;;;4.67;;
24826;SDS011;12910;57.690;11.974;2023-03-23T04:44:05;22.67;;;4.67;;
24826;SDS011;12910;57.690;11.974;2023-03-23T04:46:31;8.63;;;4.33;;
24826;SDS011;12910;57.690;11.974;2023-03-23T04:48:56;12.27;;;4.00;;
24826;SDS011;12910;57.690;11.974;2023-03-23T04:51:28;19.53;;;4.93;;
24826;SDS011;12910;57.690;11.974;2023-03-23T04:53:54;12.30;;;3.47;;
24826;SDS011;12910;57.690;11.974;2023-03-23T04:56:20;9.80;;;4.70;;
24826;SDS011;12910;57.690;11.974;2023-03-23T04:58:46;11.90;;;3.67;;
24826;SDS011;12910;57.690;11.974;2023-03-23T05:01:11;10.20;;;3.53;;
24826;SDS011;12910;57.690;11.974;2023-03-23T05:03:42;9.73;;;3.77;;
24826;SDS011;12910;57.690;11.974;2023-03-23T05:06:08;6.23;;;2.73;;
24826;SDS011;12910;57.690;11.974;2023-03-23T05:08:34;9.27;;;3.70;;
24826;SDS011;12910;57.690;11.974;2023-03-23T05:11:04;17.77;;;3.47;;
24826;SDS011;12910;57.690;11.974;2023-03-23T05:13:30;20.03;;;4.97;;
24826;SDS011;12910;57.690;11.974;2023-03-23T05:15:56;14.30;;;3.90;;
24826;SDS011;12910;57.690;11.974;2023-03-23T05:18:22;9.10;;;3.63;;
24826;SDS011;12910;57.690;11.974;2023-03-23T05:20:47;12.20;;;4.07;;
24826;SDS011;12910;57.690;11.974;2023-03-23T05:23:14;15.80;;;3.77;;
24826;SDS011;12910;57.690;11.974;2023-03-23T05:25:39;5.07;;;3.37;;
24826;SDS011;12910;57.690;11.974;2023-03-23T05:28:09;5.00;;;3.43;;
24826;SDS011;12910;57.690;11.974;2023-03-23T05:30:36;12.93;;;4.57;;
24826;SDS011;12910;57.690;11.974;2023-03-23T05:33:03;16.37;;;5.30;;
24826;SDS011;12910;57.690;11.974;2023-03-23T05:35:29;8.13;;;3.77;;
24826;SDS011;12910;57.690;11.974;2023-03-23T05:37:54;10.17;;;3.97;;
24826;SDS011;12910;57.690;11.974;2023-03-23T05:40:21;5.17;;;3.57;;
24826;SDS011;12910;57.690;11.974;2023-03-23T05:42:47;5.40;;;3.47;;
24826;SDS011;12910;57.690;11.974;2023-03-23T05:45:13;14.63;;;4.53;;
24826;SDS011;12910;57.690;11.974;2023-03-23T05:47:39;9.43;;;5.10;;
24826;SDS011;12910;57.690;11.974;2023-03-23T05:50:06;5.47;;;4.37;;
24826;SDS011;12910;57.690;11.974;2023-03-23T05:52:34;13.27;;;3.73;;
24826;SDS011;12910;57.690;11.974;2023-03-23T05:55:00;7.57;;;4.37;;
24826;SDS011;12910;57.690;11.974;2023-03-23T05:57:26;7.63;;;4.10;;
24826;SDS011;12910;57.690;11.974;2023-03-23T05:59:51;6.80;;;4.93;;
24826;SDS011;12910;57.690;11.974;2023-03-23T06:02:17;7.67;;;3.93;;
24826;SDS011;12910;57.690;11.974;2023-03-23T06:04:42;9.67;;;4.23;;
24826;SDS011;12910;57.690;11.974;2023-03-23T06:07:08;4.97;;;4.50;;
24826;SDS011;12910;57.690;11.974;2023-03-23T06:09:37;5.40;;;4.77;;
24826;SDS011;12910;57.690;11.974;2023-03-23T06:12:03;9.20;;;4.33;;
24826;SDS011;12910;57.690;11.974;2023-03-23T06:14:29;10.47;;;4.90;;
24826;SDS011;12910;57.690;11.974;2023-03-23T06:16:55;10.47;;;5.40;;
24826;SDS011;12910;57.690;11.974;2023-03-23T06:19:20;9.33;;;4.50;;
24826;SDS011;12910;57.690;11.974;2023-03-23T06:21:46;6.47;;;3.80;;
24826;SDS011;12910;57.690;11.974;2023-03-23T06:24:11;14.87;;;5.47;;
24826;SDS011;12910;57.690;11.974;2023-03-23T06:26:38;13.47;;;4.53;;
24826;SDS011;12910;57.690;11.974;2023-03-23T06:29:06;8.67;;;5.00;;
24826;SDS011;12910;57.690;11.974;2023-03-23T06:31:37;9.63;;;5.80;;
24826;SDS011;12910;57.690;11.974;2023-03-23T06:34:04;10.10;;;5.13;;
24826;SDS011;12910;57.690;11.974;2023-03-23T06:36:30;12.93;;;5.40;;
24826;SDS011;12910;57.690;11.974;2023-03-23T06:38:56;14.50;;;5.27;;
24826;SDS011;12910;57.690;11.974;2023-03-23T06:41:22;6.77;;;5.47;;
24826;SDS011;12910;57.690;11.974;2023-03-23T06:43:47;8.50;;;6.07;;
24826;SDS011;12910;57.690;11.974;2023-03-23T06:46:12;11.93;;;6.20;;
24826;SDS011;12910;57.690;11.974;2023-03-23T06:48:38;9.03;;;6.10;;
24826;SDS011;12910;57.690;11.974;2023-03-23T06:51:03;8.90;;;6.10;;
24826;SDS011;12910;57.690;11.974;2023-03-23T06:53:30;9.77;;;5.93;;
24826;SDS011;12910;57.690;11.974;2023-03-23T06:55:55;15.17;;;7.33;;
24826;SDS011;12910;57.690;11.974;2023-03-23T06:58:21;10.13;;;6.67;;
24826;SDS011;12910;57.690;11.974;2023-03-23T07:00:52;6.17;;;5.47;;
24826;SDS011;12910;57.690;11.974;2023-03-23T07:03:24;11.03;;;7.33;;
24826;SDS011;12910;57.690;11.974;2023-03-23T07:05:50;15.07;;;7.03;;
24826;SDS011;12910;57.690;11.974;2023-03-23T07:08:16;15.37;;;8.53;;
24826;SDS011;12910;57.690;11.974;2023-03-23T07:10:41;15.17;;;8.43;;
24826;SDS011;12910;57.690;11.974;2023-03-23T07:13:07;17.83;;;7.20;;
24826;SDS011;12910;57.690;11.974;2023-03-23T07:15:32;15.43;;;8.27;;
24826;SDS011;12910;57.690;11.974;2023-03-23T07:17:57;17.90;;;8.07;;
24826;SDS011;12910;57.690;11.974;2023-03-23T07:20:23;9.03;;;8.20;;
24826;SDS011;12910;57.690;11.974;2023-03-23T07:22:48;9.80;;;7.57;;
24826;SDS011;12910;57.690;11.974;2023-03-23T07:25:14;9.50;;;8.13;;
24826;SDS011;12910;57.690;11.974;2023-03-23T07:27:41;9.60;;;6.20;;
24826;SDS011;12910;57.690;11.974;2023-03-23T07:30:06;10.90;;;7.83;;
24826;SDS011;12910;57.690;11.974;2023-03-23T07:32:32;16.33;;;7.67;;
24826;SDS011;12910;57.690;11.974;2023-03-23T07:34:58;15.80;;;9.43;;
24826;SDS011;12910;57.690;11.974;2023-03-23T07:37:23;8.73;;;7.90;;
24826;SDS011;12910;57.690;11.974;2023-03-23T07:39:49;12.00;;;8.23;;
24826;SDS011;12910;57.690;11.974;2023-03-23T07:42:14;13.60;;;8.90;;
24826;SDS011;12910;57.690;11.974;2023-03-23T07:44:40;11.43;;;7.70;;
24826;SDS011;12910;57.690;11.974;2023-03-23T07:47:05;8.40;;;6.97;;
24826;SDS011;12910;57.690;11.974;2023-03-23T07:49:31;11.10;;;8.60;;
24826;SDS011;12910;57.690;11.974;2023-03-23T07:51:57;8.47;;;7.77;;
24826;SDS011;12910;57.690;11.974;2023-03-23T07:54:22;12.00;;;8.20;;
24826;SDS011;12910;57.690;11.974;2023-03-23T07:56:48;9.10;;;8.20;;
24826;SDS011;12910;57.690;11.974;2023-03-23T07:59:14;7.93;;;7.27;;
24826;SDS011;12910;57.690;11.974;2023-03-23T08:01:40;17.43;;;7.93;;
24826;SDS011;12910;57.690;11.974;2023-03-23T08:04:05;12.97;;;8.03;;
24826;SDS011;12910;57.690;11.974;2023-03-23T08:06:32;9.17;;;8.23;;
24826;SDS011;12910;57.690;11.974;2023-03-23T08:08:59;19.73;;;10.00;;
24826;SDS011;12910;57.690;11.974;2023-03-23T08:11:25;11.70;;;8.67;;
24826;SDS011;12910;57.690;11.974;2023-03-23T08:13:51;8.60;;;7.70;;
24826;SDS011;12910;57.690;11.974;2023-03-23T08:16:38;13.53;;;8.20;;
24826;SDS011;12910;57.690;11.974;2023-03-23T08:19:08;13.03;;;8.10;;
24826;SDS011;12910;57.690;11.974;2023-03-23T08:21:33;10.63;;;8.33;;
24826;SDS011;12910;57.690;11.974;2023-03-23T08:24:00;11.60;;;8.00;;
24826;SDS011;12910;57.690;11.974;2023-03-23T08:26:26;7.73;;;7.03;;
24826;SDS011;12910;57.690;11.974;2023-03-23T08:28:52;8.27;;;6.93;;
24826;SDS011;12910;57.690;11.974;2023-03-23T08:31:18;13.80;;;8.27;;
24826;SDS011;12910;57.690;11.974;2023-03-23T08:33:44;7.50;;;6.97;;
24826;SDS011;12910;57.690;11.974;2023-03-23T08:36:09;6.80;;;6.20;;
24826;SDS011;12910;57.690;11.974;2023-03-23T08:38:35;6.53;;;5.30;;
24826;SDS011;12910;57.690;11.974;2023-03-23T08:41:01;5.20;;;4.63;;
24826;SDS011;12910;57.690;11.974;2023-03-23T08:43:29;5.20;;;4.80;;
24826;SDS011;12910;57.690;11.974;2023-03-23T08:45:55;9.30;;;4.30;;
24826;SDS011;12910;57.690;11.974;2023-03-23T08:48:21;4.93;;;4.63;;
24826;SDS011;12910;57.690;11.974;2023-03-23T08:50:50;5.83;;;4.73;;
24826;SDS011;12910;57.690;11.974;2023-03-23T08:53:17;5.20;;;4.27;;
24826;SDS011;12910;57.690;11.974;2023-03-23T08:55:46;6.57;;;4.67;;
24826;SDS011;12910;57.690;11.974;2023-03-23T08:58:12;5.10;;;4.63;;
24826;SDS011;12910;57.690;11.974;2023-03-23T09:00:38;5.43;;;5.03;;
24826;SDS011;12910;57.690;11.974;2023-03-23T09:03:04;4.47;;;4.17;;
24826;SDS011;12910;57.690;11.974;2023-03-23T09:05:29;4.33;;;3.97;;
24826;SDS011;12910;57.690;11.974;2023-03-23T09:07:56;6.00;;;4.77;;
24826;SDS011;12910;57.690;11.974;2023-03-23T09:10:26;8.60;;;5.23;;
24826;SDS011;12910;57.690;11.974;2023-03-23T09:12:53;7.33;;;4.97;;
24826;SDS011;12910;57.690;11.974;2023-03-23T09:15:20;6.23;;;5.30;;
24826;SDS011;12910;57.690;11.974;2023-03-23T09:17:46;5.30;;;4.90;;
24826;SDS011;12910;57.690;11.974;2023-03-23T09:20:15;10.03;;;5.67;;
24826;SDS011;12910;57.690;11.974;2023-03-23T09:22:45;5.20;;;4.53;;
24826;SDS011;12910;57.690;11.974;2023-03-23T09:25:13;7.33;;;4.30;;
24826;SDS011;12910;57.690;11.974;2023-03-23T09:27:41;6.10;;;5.00;;
24826;SDS011;12910;57.690;11.974;2023-03-23T09:30:09;4.50;;;4.10;;
24826;SDS011;12910;57.690;11.974;2023-03-23T09:32:38;10.73;;;4.60;;
24826;SDS011;12910;57.690;11.974;2023-03-23T09:35:08;6.20;;;5.60;;
24826;SDS011;12910;57.690;11.974;2023-03-23T09:37:36;5.50;;;4.67;;
24826;SDS011;12910;57.690;11.974;2023-03-23T09:40:03;5.80;;;5.40;;
24826;SDS011;12910;57.690;11.974;2023-03-23T09:42:34;6.93;;;6.23;;
24826;SDS011;12910;57.690;11.974;2023-03-23T09:57:01;8.13;;;7.53;;
24826;SDS011;12910;57.690;11.974;2023-03-23T09:59:33;8.37;;;6.83;;
24826;SDS011;12910;57.690;11.974;2023-03-23T10:02:15;7.53;;;6.93;;
24826;SDS011;12910;57.690;11.974;2023-03-23T10:04:49;8.67;;;7.93;;
24826;SDS011;12910;57.690;11.974;2023-03-23T10:09:54;8.87;;;8.20;;
24826;SDS011;12910;57.690;11.974;2023-03-23T10:22:41;9.87;;;9.17;;
24826;SDS011;12910;57.690;11.974;2023-03-23T10:27:45;8.77;;;8.00;;
24826;SDS011;12910;57.690;11.974;2023-03-23T10:30:29;8.10;;;6.73;;
24826;SDS011;12910;57.690;11.974;2023-03-23T10:33:00;7.33;;;6.63;;
24826;SDS011;12910;57.690;11.974;2023-03-23T10:35:50;5.33;;;5.00;;
24826;SDS011;12910;57.690;11.974;2023-03-23T10:38:28;5.23;;;4.63;;
24826;SDS011;12910;57.690;11.974;2023-03-23T10:41:11;4.73;;;4.23;;
24826;SDS011;12910;57.690;11.974;2023-03-23T10:43:42;6.00;;;5.30;;
24826;SDS011;12910;57.690;11.974;2023-03-23T10:48:56;5.17;;;3.03;;
24826;SDS011;12910;57.690;11.974;2023-03-23T10:51:27;6.23;;;3.20;;
24826;SDS011;12910;57.690;11.974;2023-03-23T10:53:59;3.63;;;2.57;;
24826;SDS011;12910;57.690;11.974;2023-03-23T10:56:40;2.40;;;2.17;;
24826;SDS011;12910;57.690;11.974;2023-03-23T10:59:49;4.93;;;2.60;;
24826;SDS011;12910;57.690;11.974;2023-03-23T11:01:59;1.97;;;1.73;;
24826;SDS011;12910;57.690;11.974;2023-03-23T11:04:30;3.93;;;2.73;;
24826;SDS011;12910;57.690;11.974;2023-03-23T11:06:58;6.00;;;3.27;;
24826;SDS011;12910;57.690;11.974;2023-03-23T11:09:34;7.80;;;2.50;;
24826;SDS011;12910;57.690;11.974;2023-03-23T11:12:01;2.93;;;1.73;;
24826;SDS011;12910;57.690;11.974;2023-03-23T11:14:29;4.07;;;1.97;;
24826;SDS011;12910;57.690;11.974;2023-03-23T11:17:00;1.93;;;1.50;;
24826;SDS011;12910;57.690;11.974;2023-03-23T11:19:36;2.63;;;1.23;;
24826;SDS011;12910;57.690;11.974;2023-03-23T11:22:13;5.03;;;2.23;;
24826;SDS011;12910;57.690;11.974;2023-03-23T11:24:45;3.13;;;1.27;;
24826;SDS011;12910;57.690;11.974;2023-03-23T11:27:12;3.07;;;2.00;;
24826;SDS011;12910;57.690;11.974;2023-03-23T11:29:53;10.57;;;2.50;;
24826;SDS011;12910;57.690;11.974;2023-03-23T11:32:28;4.83;;;1.57;;
24826;SDS011;12910;57.690;11.974;2023-03-23T11:34:58;3.67;;;1.70;;
24826;SDS011;12910;57.690;11.974;2023-03-23T11:37:33;5.60;;;1.20;;
24826;SDS011;12910;57.690;11.974;2023-03-23T11:42:43;3.77;;;1.83;;
24826;SDS011;12910;57.690;11.974;2023-03-23T11:45:13;3.20;;;1.13;;
24826;SDS011;12910;57.690;11.974;2023-03-23T11:53:30;1.90;;;1.03;;
24826;SDS011;12910;57.690;11.974;2023-03-23T11:58:47;1.57;;;0.73;;
24826;SDS011;12910;57.690;11.974;2023-03-23T12:12:45;4.97;;;0.60;;
24826;SDS011;12910;57.690;11.974;2023-03-23T12:15:45;1.27;;;0.70;;
24826;SDS011;12910;57.690;11.974;2023-03-23T12:18:21;1.00;;;0.60;;
24826;SDS011;12910;57.690;11.974;2023-03-23T12:23:39;0.60;;;0.50;;
24826;SDS011;12910;57.690;11.974;2023-03-23T12:26:21;2.67;;;0.60;;
24826;SDS011;12910;57.690;11.974;2023-03-23T12:37:19;0.83;;;0.80;;
24826;SDS011;12910;57.690;11.974;2023-03-23T12:40:06;4.27;;;0.70;;
24826;SDS011;12910;57.690;11.974;2023-03-23T12:47:53;3.90;;;0.90;;
24826;SDS011;12910;57.690;11.974;2023-03-23T12:50:43;2.13;;;0.90;;
24826;SDS011;12910;57.690;11.974;2023-03-23T12:53:25;3.77;;;0.70;;
24826;SDS011;12910;57.690;11.974;2023-03-23T12:58:34;1.47;;;0.93;;
24826;SDS011;12910;57.690;11.974;2023-03-23T13:04:07;2.00;;;1.03;;
24826;SDS011;12910;57.690;11.974;2023-03-23T13:06:38;7.40;;;1.30;;
24826;SDS011;12910;57.690;11.974;2023-03-23T13:11:49;1.77;;;1.03;;
24826;SDS011;12910;57.690;11.974;2023-03-23T13:22:02;2.27;;;1.47;;
24826;SDS011;12910;57.690;11.974;2023-03-23T13:24:34;7.33;;;1.40;;
24826;SDS011;12910;57.690;11.974;2023-03-23T13:27:04;6.83;;;1.30;;
24826;SDS011;12910;57.690;11.974;2023-03-23T13:29:31;5.57;;;1.73;;
24826;SDS011;12910;57.690;11.974;2023-03-23T13:32:10;3.83;;;1.33;;
24826;SDS011;12910;57.690;11.974;2023-03-23T13:34:40;5.47;;;1.50;;
24826;SDS011;12910;57.690;11.974;2023-03-23T13:37:09;3.27;;;1.07;;
24826;SDS011;12910;57.690;11.974;2023-03-23T13:47:25;8.00;;;1.50;;
24826;SDS011;12910;57.690;11.974;2023-03-23T14:11:18;6.03;;;1.00;;
24826;SDS011;12910;57.690;11.974;2023-03-23T14:16:20;7.37;;;1.47;;
24826;SDS011;12910;57.690;11.974;2023-03-23T14:18:55;7.13;;;1.17;;
24826;SDS011;12910;57.690;11.974;2023-03-23T14:21:30;9.87;;;1.63;;
24826;SDS011;12910;57.690;11.974;2023-03-23T14:24:03;5.50;;;1.77;;
24826;SDS011;12910;57.690;11.974;2023-03-23T14:26:34;2.10;;;1.10;;
24826;SDS011;12910;57.690;11.974;2023-03-23T14:29:01;8.73;;;3.13;;
24826;SDS011;12910;57.690;11.974;2023-03-23T14:31:27;4.23;;;1.30;;
24826;SDS011;12910;57.690;11.974;2023-03-23T14:33:55;5.10;;;1.23;;
24826;SDS011;12910;57.690;11.974;2023-03-23T14:38:48;10.13;;;1.50;;
24826;SDS011;12910;57.690;11.974;2023-03-23T14:41:22;12.33;;;2.33;;
24826;SDS011;12910;57.690;11.974;2023-03-23T14:43:47;10.43;;;3.03;;
24826;SDS011;12910;57.690;11.974;2023-03-23T14:46:13;9.20;;;3.23;;
24826;SDS011;12910;57.690;11.974;2023-03-23T14:48:39;13.90;;;2.70;;
24826;SDS011;12910;57.690;11.974;2023-03-23T14:51:05;10.33;;;1.77;;
24826;SDS011;12910;57.690;11.974;2023-03-23T14:53:34;13.43;;;2.43;;
24826;SDS011;12910;57.690;11.974;2023-03-23T14:56:30;7.77;;;2.77;;
24826;SDS011;12910;57.690;11.974;2023-03-23T14:59:00;14.20;;;2.30;;
24826;SDS011;12910;57.690;11.974;2023-03-23T15:01:30;11.70;;;2.73;;
24826;SDS011;12910;57.690;11.974;2023-03-23T15:04:04;9.37;;;1.90;;
24826;SDS011;12910;57.690;11.974;2023-03-23T15:06:37;11.47;;;2.50;;
24826;SDS011;12910;57.690;11.974;2023-03-23T15:09:06;11.03;;;2.50;;
24826;SDS011;12910;57.690;11.974;2023-03-23T15:11:35;8.93;;;2.07;;
24826;SDS011;12910;57.690;11.974;2023-03-23T15:14:24;16.13;;;1.97;;
24826;SDS011;12910;57.690;11.974;2023-03-23T15:16:56;9.90;;;4.17;;
24826;SDS011;12910;57.690;11.974;2023-03-23T15:19:34;16.43;;;2.63;;
24826;SDS011;12910;57.690;11.974;2023-03-23T15:24:49;9.53;;;3.27;;
24826;SDS011;12910;57.690;11.974;2023-03-23T15:27:24;7.10;;;2.57;;
24826;SDS011;12910;57.690;11.974;2023-03-23T15:29:57;10.93;;;2.67;;
24826;SDS011;12910;57.690;11.974;2023-03-23T15:32:26;10.63;;;3.83;;
24826;SDS011;12910;57.690;11.974;2023-03-23T15:34:54;18.70;;;4.00;;
24826;SDS011;12910;57.690;11.974;2023-03-23T15:37:30;10.67;;;2.67;;
24826;SDS011;12910;57.690;11.974;2023-03-23T15:39:57;14.70;;;3.17;;
24826;SDS011;12910;57.690;11.974;2023-03-23T15:42:31;20.80;;;2.93;;
24826;SDS011;12910;57.690;11.974;2023-03-23T15:45:21;15.50;;;2.53;;
24826;SDS011;12910;57.690;11.974;2023-03-23T15:47:51;6.30;;;2.17;;
24826;SDS011;12910;57.690;11.974;2023-03-23T15:50:18;10.70;;;2.10;;
24826;SDS011;12910;57.690;11.974;2023-03-23T15:52:45;16.10;;;2.40;;
24826;SDS011;12910;57.690;11.974;2023-03-23T15:55:29;5.17;;;2.63;;
24826;SDS011;12910;57.690;11.974;2023-03-23T15:58:00;23.47;;;5.20;;
24826;SDS011;12910;57.690;11.974;2023-03-23T16:00:34;16.47;;;2.67;;
24826;SDS011;12910;57.690;11.974;2023-03-23T16:03:01;7.57;;;3.00;;
24826;SDS011;12910;57.690;11.974;2023-03-23T16:05:30;16.33;;;1.70;;
24826;SDS011;12910;57.690;11.974;2023-03-23T16:07:56;15.30;;;3.27;;
24826;SDS011;12910;57.690;11.974;2023-03-23T16:10:22;19.00;;;1.93;;
24826;SDS011;12910;57.690;11.974;2023-03-23T16:12:48;14.77;;;2.07;;
24826;SDS011;12910;57.690;11.974;2023-03-23T16:15:14;11.87;;;2.43;;
24826;SDS011;12910;57.690;11.974;2023-03-23T16:17:40;12.33;;;3.20;;
24826;SDS011;12910;57.690;11.974;2023-03-23T16:20:16;10.50;;;2.20;;
24826;SDS011;12910;57.690;11.974;2023-03-23T16:22:46;11.63;;;2.80;;
24826;SDS011;12910;57.690;11.974;2023-03-23T16:25:12;31.37;;;3.37;;
24826;SDS011;12910;57.690;11.974;2023-03-23T16:27:39;16.97;;;3.23;;
24826;SDS011;12910;57.690;11.974;2023-03-23T16:32:41;14.43;;;2.37;;
24826;SDS011;12910;57.690;11.974;2023-03-23T16:35:07;13.50;;;3.30;;
24826;SDS011;12910;57.690;11.974;2023-03-23T16:37:33;16.30;;;2.70;;
24826;SDS011;12910;57.690;11.974;2023-03-23T16:39:59;18.53;;;3.27;;
24826;SDS011;12910;57.690;11.974;2023-03-23T16:42:25;11.47;;;1.80;;
24826;SDS011;12910;57.690;11.974;2023-03-23T16:44:51;10.03;;;1.83;;
24826;SDS011;12910;57.690;11.974;2023-03-23T16:47:18;11.70;;;2.13;;
24826;SDS011;12910;57.690;11.974;2023-03-23T16:49:47;6.43;;;2.00;;
24826;SDS011;12910;57.690;11.974;2023-03-23T16:52:12;9.53;;;2.33;;
24826;SDS011;12910;57.690;11.974;2023-03-23T16:54:38;7.43;;;2.73;;
24826;SDS011;12910;57.690;11.974;2023-03-23T16:57:03;13.23;;;3.00;;
24826;SDS011;12910;57.690;11.974;2023-03-23T16:59:28;7.90;;;1.70;;
24826;SDS011;12910;57.690;11.974;2023-03-23T17:01:54;9.60;;;2.60;;
24826;SDS011;12910;57.690;11.974;2023-03-23T17:04:19;14.03;;;2.47;;
24826;SDS011;12910;57.690;11.974;2023-03-23T17:06:45;7.60;;;1.63;;